Conejos, Valles Caldera, New Mexico Weather observations

Data are for 10 minute period ending at time listed.
 Day   Time   Solar   Ave.   Ave.  Ave.  Vector  Max.   Baro.   Total    
  of    of     Rad.   Air    Rel.  Wind   Wind   Wind  Press.  Precip.   
Year   Day            Temp.  Hum.  Speed  Dir.   Gust                    
2016   (MST)  Kw/m2    F      %     mph   deg.    mph    mb.     in.     
-------------------------------------------------------------------------
  39    4:30   0.00   27.7    52    0.1   256     1.5   99999.0    0.00 
  39    4:40   0.00   27.7    52    0.0   311     1.2   99999.0    0.00 
  39    4:50   0.00   26.7    56    0.8   226     2.4   99999.0    0.00 
  39    5:00   0.00   25.7    58    0.1   244     1.2   99999.0    0.00 
  39    5:10   0.00   26.9    54    0.1   271     1.2   99999.0    0.00 
  39    5:20   0.00   29.1    48    0.0     0     0.0   99999.0    0.00 
  39    5:30   0.00   28.2    50    0.1   320     1.2   99999.0    0.00 
  39    5:40   0.00   26.3    54    2.2   325     3.6   99999.0    0.00 
  39    5:50   0.00   28.2    50    2.9   324     4.2   99999.0    0.00 
  39    6:00   0.00   26.8    53    3.1   336     4.2   99999.0    0.00 
  39    6:10   0.00   26.7    51    2.8   332     3.6   99999.0    0.00 
  39    6:20   0.00   28.7    46    2.7   325     3.6   99999.0    0.00 
  39    6:30   0.00   29.4    41    2.2   322     3.0   99999.0    0.00 
  39    6:40   0.00   29.5    40    1.3   316     2.4   99999.0    0.00 
  39    6:50   0.00   30.0    38    0.8   314     1.8   99999.0    0.00 
  39    7:00   0.00   30.3    38    0.6   207     1.8   99999.0    0.00 
  39    7:10   0.00   29.1    41    0.2   227     1.2   99999.0    0.00 
  39    7:20   0.01   27.8    43    0.0     0     0.0   99999.0    0.00 
  39    7:30   0.01   28.0    43    0.0     0     0.0   99999.0    0.00 
  39    7:40   0.02   28.1    41    0.0     0     0.0   99999.0    0.00 
  39    7:50   0.02   28.2    40    0.8   323     2.4   99999.0    0.00 
  39    8:00   0.03   28.6    39    1.8   325     3.0   99999.0    0.00 
  39    8:10   0.03   31.0    36    1.1   328     2.4   99999.0    0.00 
  39    8:20   0.04   34.3    27    0.0     0     0.0   99999.0    0.00 
  39    8:30   0.04   35.9    26    0.0     0     0.0   99999.0    0.00 
  39    8:40   0.07   35.7    31    0.0     0     0.0   99999.0    0.00 
  39    8:50   0.09   31.1    45    0.0     0     0.0   99999.0    0.00 
  39    9:00   0.05   30.8    48    0.0     0     0.0   99999.0    0.00 
  39    9:10   0.09   32.3    44    0.0     0     0.0   99999.0    0.00 
  39    9:20   0.05   34.1    42    0.0     0     0.0   99999.0    0.00 
  39    9:30   0.33   36.1    38    0.0     0     0.0   99999.0    0.00 
  39    9:40   0.44   37.4    36    0.0     0     0.0   99999.0    0.00 
  39    9:50   0.19   38.2    35    0.0     0     0.0   99999.0    0.00 
  39   10:00   0.39   38.5    35    0.0     0     0.0   99999.0    0.00 
  39   10:10   0.55   38.5    36    0.0     0     0.0   99999.0    0.00 
  39   10:20   0.56   37.8    38    0.0     0     0.0   99999.0    0.00 
  39   10:30   0.58   36.5    43    0.0     0     0.0   99999.0    0.00 
  39   10:40   0.60   36.0    43    0.0     0     0.0   99999.0    0.00 
  39   10:50   0.61   36.5    42    0.0     0     0.0   99999.0    0.00 
  39   11:00   0.62   37.1    42    0.0     0     0.0   99999.0    0.00 
  39   11:10   0.63   38.2    39    0.0     0     0.0   99999.0    0.00 
  39   11:20   0.62   39.7    37    0.0     0     0.0   99999.0    0.00 
  39   11:30   0.64   41.0    35    0.0     0     0.0   99999.0    0.00 
  39   11:40   0.65   42.0    33    0.0     0     0.0   99999.0    0.00 
  39   11:50   0.65   42.5    32    0.0     0     0.0   99999.0    0.00 
  39   12:00   0.65   43.3    31    0.0     0     0.0   99999.0    0.00 
  39   12:10   0.65   43.6    31    0.0     0     0.0   99999.0    0.00 
  39   12:20   0.65   43.8    30    0.0     0     0.0   99999.0    0.00 
  39   12:30   0.64   44.1    30    0.0     0     0.0   99999.0    0.00 
  39   12:40   0.64   44.5    30    0.0     0     0.0   99999.0    0.00 
  39   12:50   0.63   44.4    29    0.0     0     0.0   99999.0    0.00 
  39   13:00   0.56   44.9    30    0.0     0     0.0   99999.0    0.00 
  39   13:10   0.62   43.8    30    0.0     0     0.0   99999.0    0.00 
  39   13:20   0.61   44.6    30    0.0     0     0.0   99999.0    0.00 
  39   13:30   0.60   45.7    29    0.0     0     0.0   99999.0    0.00 
  39   13:40   0.59   44.8    30    0.0     0     0.0   99999.0    0.00 
  39   13:50   0.37   44.7    30    0.0     0     0.0   99999.0    0.00 
  39   14:00   0.14   44.1    31    0.0     0     0.0   99999.0    0.00 
  39   14:10   0.11   43.6    31    0.0     0     0.0   99999.0    0.00 
  39   14:20   0.08   43.7    32    0.0     0     0.0   99999.0    0.00 
  39   14:30   0.05   43.9    31    0.0     0     0.0   99999.0    0.00 
  39   14:40   0.14   44.2    31    0.0     0     0.0   99999.0    0.00 
  39   14:50   0.23   44.3    32    0.0     0     0.0   99999.0    0.00 
  39   15:00   0.43   44.7    32    0.0     0     0.0   99999.0    0.00 
  39   15:10   0.35   44.9    31    0.0     0     0.0   99999.0    0.00 
  39   15:20   0.35   44.0    32    0.0     0     0.0   99999.0    0.00 
  39   15:30   0.34   44.0    32    0.0     0     0.0   99999.0    0.01 
  39   15:40   0.29   43.5    34    0.0     0     0.0   99999.0    0.00 
  39   15:50   0.14   43.3    33    0.0     0     0.0   99999.0    0.00 
  39   16:00   0.04   44.0    34    0.0     0     0.0   99999.0    0.00 
  39   16:10   0.03   44.2    32    0.0     0     0.0   99999.0    0.00 
  39   16:20   0.02   43.1    32    0.0     0     0.0   99999.0    0.00 
  39   16:30   0.02   42.5    33    0.0     0     0.0   99999.0    0.00 
  39   16:40   0.02   41.7    34    0.0     0     0.0   99999.0    0.00 
  39   16:50   0.01   41.3    34    0.0     0     0.0   99999.0    0.00 
  39   17:00   0.01   40.7    35    0.0     0     0.0   99999.0    0.00 
  39   17:10   0.01   39.9    37    0.0     0     0.0   99999.0    0.00 
  39   17:20   0.01   39.2    40    0.0     0     0.0   99999.0    0.00 
  39   17:30   0.01   39.0    41    0.0     0     0.0   99999.0    0.00 
  39   17:40   0.00   38.7    43    0.0     0     0.0   99999.0    0.00 
  39   17:50   0.00   36.7    48    0.0     0     0.0   99999.0    0.00 
  39   18:00   0.00   36.2    49    0.0     0     0.0   99999.0    0.00 
  39   18:10   0.00   36.7    47    0.0     0     0.0   99999.0    0.00 
  39   18:20   0.00   36.6    46    0.0     0     0.0   99999.0    0.00 
  39   18:30   0.00   36.2    48    0.0     0     0.0   99999.0    0.00 
  39   18:40   0.00   35.8    48    0.0     0     0.0   99999.0    0.00 
  39   18:50   0.00   35.7    48    0.0     0     0.0   99999.0    0.00 
  39   19:00   0.00   36.0    47    0.0     0     0.0   99999.0    0.00 
  39   19:10   0.00   36.0    46    0.0     0     0.0   99999.0    0.00 
  39   19:20   0.00   36.4    45    0.0     0     0.0   99999.0    0.00 
  39   19:30   0.00   35.9    49    0.0     0     0.0   99999.0    0.00 
  39   19:40   0.00   34.3    52    0.0     0     0.0   99999.0    0.00 
  39   19:50   0.00   33.0    50    0.0     0     0.0   99999.0    0.00 
  39   20:00   0.00   32.4    52    0.0     0     0.0   99999.0    0.00 
  39   20:10   0.00   34.8    48    0.0     0     0.0   99999.0    0.00 
  39   20:20   0.00   34.2    49    0.0     0     0.0   99999.0    0.00 
  39   20:30   0.00   32.5    53    0.0     0     0.0   99999.0    0.00 
  39   20:40   0.00   31.6    55    0.0     0     0.0   99999.0    0.00 
  39   20:50   0.00   30.8    56    0.0     0     0.0   99999.0    0.00 
  39   21:00   0.00   31.2    56    0.0     0     0.0   99999.0    0.00 
  39   21:10   0.00   30.2    59    0.0     0     0.0   99999.0    0.00 
  39   21:20   0.00   30.7    58    0.0     0     0.0   99999.0    0.00 
  39   21:30   0.00   31.1    55    0.0     0     0.0   99999.0    0.00 
  39   21:40   0.00   32.2    53    0.0     0     0.0   99999.0    0.00 
  39   21:50   0.00   33.0    50    0.0     0     0.0   99999.0    0.00 
  39   22:00   0.00   32.3    51    0.0     0     0.0   99999.0    0.00 
  39   22:10   0.00   33.2    51    0.0     0     0.0   99999.0    0.00 
  39   22:20   0.00   31.0    52    0.0     0     0.0   99999.0    0.00 
  39   22:30   0.00   29.4    56    0.0     0     0.0   99999.0    0.00 
  39   22:40   0.00   29.8    60    0.0     0     0.0   99999.0    0.00 
  39   22:50   0.00   28.5    60    0.0     0     0.0   99999.0    0.00 
  39   23:00   0.00   29.8    59    0.0     0     0.0   99999.0    0.00 
  39   23:10   0.00   30.3    58    0.0     0     0.0   99999.0    0.00 
  39   23:20   0.00   29.2    57    0.0     0     0.0   99999.0    0.00 
  39   23:30   0.00   29.4    59    0.0     0     0.0   99999.0    0.00 
  39   23:40   0.00   30.3    57    0.0     0     0.0   99999.0    0.00 
  39   23:50   0.00   29.9    57    0.0     0     0.0   99999.0    0.00 
  40    0:00   0.00   29.9    57    0.0     0     0.0   99999.0    0.00 
  40    0:10   0.00   29.1    59    0.0     0     0.0   99999.0    0.00 
  40    0:20   0.00   29.5    58    0.0     0     0.0   99999.0    0.00 
  40    0:30   0.00   28.5    58    0.0     0     0.0   99999.0    0.00 
  40    0:40   0.00   28.5    58    0.0     0     0.0   99999.0    0.00 
  40    0:50   0.00   28.4    57    0.0     0     0.0   99999.0    0.00 
  40    1:00   0.00   27.7    59    0.0     0     0.0   99999.0    0.00 
  40    1:10   0.00   28.2    58    0.0     0     0.0   99999.0    0.00 
  40    1:20   0.00   29.1    59    0.0     0     0.0   99999.0    0.00 
  40    1:30   0.00   28.9    57    0.0     0     0.0   99999.0    0.00 
  40    1:40   0.00   29.0    56    0.0     0     0.0   99999.0    0.00 
  40    1:50   0.00   28.6    56    0.0     0     0.0   99999.0    0.00 
  40    2:00   0.00   28.1    56    0.0     0     0.0   99999.0    0.00 
  40    2:10   0.00   29.2    54    0.0     0     0.0   99999.0    0.00 
  40    2:20   0.00   31.3    48    0.0     0     0.0   99999.0    0.00 
  40    2:30   0.00   31.2    50    0.0     0     0.0   99999.0    0.00 
  40    2:40   0.00   28.9    53    0.0     0     0.0   99999.0    0.00 
  40    2:50   0.00   27.8    57    0.0     0     0.0   99999.0    0.00 
  40    3:00   0.00   27.8    56    0.0     0     0.0   99999.0    0.00 
  40    3:10   0.00   27.9    55    0.0     0     0.0   99999.0    0.00 
  40    3:20   0.00   27.6    56    0.0     0     0.0   99999.0    0.00 
  40    3:30   0.00   27.4    57    0.0     0     0.0   99999.0    0.00 
  40    3:40   0.00   27.6    55    0.0     0     0.0   99999.0    0.00 
  40    3:50   0.00   27.0    54    0.0     0     0.0   99999.0    0.00 
  40    4:00   0.00   27.1    53    0.0     0     0.0   99999.0    0.00 
  40    4:10   0.00   27.2    49    0.0     0     0.0   99999.0    0.00 
  40    4:20   0.00   29.2    44    0.0     0     0.0   99999.0    0.00 

Return to Conejos, Valles Caldera graphs page.


Western Regional Climate Center,wrcc@dri.edu